sensor_id;sensor_type;location;lat;lon;timestamp;P1;durP1;ratioP1;P2;durP2;ratioP2
52898;SDS011;38763;53.096;6.062;2023-04-03T00:00:41;3.83;;;0.93;;
52898;SDS011;38763;53.096;6.062;2023-04-03T00:03:07;4.70;;;1.17;;
52898;SDS011;38763;53.096;6.062;2023-04-03T00:05:33;2.10;;;0.88;;
52898;SDS011;38763;53.096;6.062;2023-04-03T00:07:58;2.42;;;0.90;;
52898;SDS011;38763;53.096;6.062;2023-04-03T00:10:26;4.03;;;0.77;;
52898;SDS011;38763;53.096;6.062;2023-04-03T00:12:52;4.18;;;0.90;;
52898;SDS011;38763;53.096;6.062;2023-04-03T00:15:18;2.08;;;0.90;;
52898;SDS011;38763;53.096;6.062;2023-04-03T00:17:44;2.33;;;0.80;;
52898;SDS011;38763;53.096;6.062;2023-04-03T00:20:10;1.98;;;0.85;;
52898;SDS011;38763;53.096;6.062;2023-04-03T00:22:36;5.75;;;1.10;;
52898;SDS011;38763;53.096;6.062;2023-04-03T00:25:02;2.97;;;1.13;;
52898;SDS011;38763;53.096;6.062;2023-04-03T00:27:28;1.60;;;0.75;;
52898;SDS011;38763;53.096;6.062;2023-04-03T00:29:54;4.50;;;0.90;;
52898;SDS011;38763;53.096;6.062;2023-04-03T00:32:20;4.35;;;0.93;;
52898;SDS011;38763;53.096;6.062;2023-04-03T00:34:46;3.40;;;0.98;;
52898;SDS011;38763;53.096;6.062;2023-04-03T00:37:11;2.63;;;0.90;;
52898;SDS011;38763;53.096;6.062;2023-04-03T00:39:37;4.68;;;0.75;;
52898;SDS011;38763;53.096;6.062;2023-04-03T00:42:02;1.83;;;0.77;;
52898;SDS011;38763;53.096;6.062;2023-04-03T00:47:00;3.13;;;0.80;;
52898;SDS011;38763;53.096;6.062;2023-04-03T00:49:28;1.98;;;0.75;;
52898;SDS011;38763;53.096;6.062;2023-04-03T00:51:54;2.75;;;0.70;;
52898;SDS011;38763;53.096;6.062;2023-04-03T00:54:22;2.40;;;0.85;;
52898;SDS011;38763;53.096;6.062;2023-04-03T00:56:49;1.85;;;0.80;;
52898;SDS011;38763;53.096;6.062;2023-04-03T00:59:28;1.90;;;0.88;;
52898;SDS011;38763;53.096;6.062;2023-04-03T01:01:57;2.85;;;0.80;;
52898;SDS011;38763;53.096;6.062;2023-04-03T01:06:57;4.25;;;1.00;;
52898;SDS011;38763;53.096;6.062;2023-04-03T01:09:30;1.58;;;0.73;;
52898;SDS011;38763;53.096;6.062;2023-04-03T01:14:55;3.88;;;0.98;;
52898;SDS011;38763;53.096;6.062;2023-04-03T01:25:26;2.83;;;1.00;;
52898;SDS011;38763;53.096;6.062;2023-04-03T01:27:52;2.28;;;0.75;;
52898;SDS011;38763;53.096;6.062;2023-04-03T01:30:19;3.03;;;1.00;;
52898;SDS011;38763;53.096;6.062;2023-04-03T01:32:48;2.45;;;0.85;;
52898;SDS011;38763;53.096;6.062;2023-04-03T01:35:14;3.05;;;0.90;;
52898;SDS011;38763;53.096;6.062;2023-04-03T01:37:39;4.45;;;1.05;;
52898;SDS011;38763;53.096;6.062;2023-04-03T01:40:05;3.28;;;1.13;;
52898;SDS011;38763;53.096;6.062;2023-04-03T01:42:32;3.72;;;1.10;;
52898;SDS011;38763;53.096;6.062;2023-04-03T01:44:57;4.50;;;1.00;;
52898;SDS011;38763;53.096;6.062;2023-04-03T01:47:23;3.65;;;0.90;;
52898;SDS011;38763;53.096;6.062;2023-04-03T01:49:48;4.03;;;1.20;;
52898;SDS011;38763;53.096;6.062;2023-04-03T01:52:14;2.58;;;0.95;;
52898;SDS011;38763;53.096;6.062;2023-04-03T01:54:40;4.45;;;1.02;;
52898;SDS011;38763;53.096;6.062;2023-04-03T01:57:05;4.32;;;1.10;;
52898;SDS011;38763;53.096;6.062;2023-04-03T01:59:31;3.28;;;1.17;;
52898;SDS011;38763;53.096;6.062;2023-04-03T02:01:57;3.13;;;1.05;;
52898;SDS011;38763;53.096;6.062;2023-04-03T02:04:22;3.17;;;1.05;;
52898;SDS011;38763;53.096;6.062;2023-04-03T02:06:48;7.07;;;1.50;;
52898;SDS011;38763;53.096;6.062;2023-04-03T02:09:14;3.53;;;1.02;;
52898;SDS011;38763;53.096;6.062;2023-04-03T02:11:40;3.58;;;1.10;;
52898;SDS011;38763;53.096;6.062;2023-04-03T02:14:05;4.00;;;1.15;;
52898;SDS011;38763;53.096;6.062;2023-04-03T02:16:31;5.00;;;1.45;;
52898;SDS011;38763;53.096;6.062;2023-04-03T02:18:57;3.08;;;1.10;;
52898;SDS011;38763;53.096;6.062;2023-04-03T02:21:23;3.10;;;1.10;;
52898;SDS011;38763;53.096;6.062;2023-04-03T02:23:48;4.25;;;1.00;;
52898;SDS011;38763;53.096;6.062;2023-04-03T02:26:15;4.88;;;1.20;;
52898;SDS011;38763;53.096;6.062;2023-04-03T02:28:41;3.88;;;1.20;;
52898;SDS011;38763;53.096;6.062;2023-04-03T02:31:07;5.88;;;1.40;;
52898;SDS011;38763;53.096;6.062;2023-04-03T02:33:34;4.18;;;1.25;;
52898;SDS011;38763;53.096;6.062;2023-04-03T02:36:04;7.00;;;1.38;;
52898;SDS011;38763;53.096;6.062;2023-04-03T02:38:30;3.97;;;1.10;;
52898;SDS011;38763;53.096;6.062;2023-04-03T02:41:03;7.15;;;1.38;;
52898;SDS011;38763;53.096;6.062;2023-04-03T02:43:34;2.83;;;1.10;;
52898;SDS011;38763;53.096;6.062;2023-04-03T02:46:00;8.13;;;1.30;;
52898;SDS011;38763;53.096;6.062;2023-04-03T02:48:25;5.72;;;1.42;;
52898;SDS011;38763;53.096;6.062;2023-04-03T02:50:51;5.28;;;1.40;;
52898;SDS011;38763;53.096;6.062;2023-04-03T02:53:17;3.97;;;1.38;;
52898;SDS011;38763;53.096;6.062;2023-04-03T02:55:44;5.88;;;1.25;;
52898;SDS011;38763;53.096;6.062;2023-04-03T02:58:09;4.50;;;1.40;;
52898;SDS011;38763;53.096;6.062;2023-04-03T03:00:36;5.35;;;1.58;;
52898;SDS011;38763;53.096;6.062;2023-04-03T03:03:02;3.10;;;1.23;;
52898;SDS011;38763;53.096;6.062;2023-04-03T03:05:28;4.57;;;1.30;;
52898;SDS011;38763;53.096;6.062;2023-04-03T03:07:53;4.70;;;1.42;;
52898;SDS011;38763;53.096;6.062;2023-04-03T03:10:19;4.35;;;1.30;;
52898;SDS011;38763;53.096;6.062;2023-04-03T03:12:45;4.70;;;1.30;;
52898;SDS011;38763;53.096;6.062;2023-04-03T03:15:11;5.18;;;1.30;;
52898;SDS011;38763;53.096;6.062;2023-04-03T03:17:36;4.22;;;1.30;;
52898;SDS011;38763;53.096;6.062;2023-04-03T03:20:03;6.10;;;1.33;;
52898;SDS011;38763;53.096;6.062;2023-04-03T03:22:29;5.05;;;1.58;;
52898;SDS011;38763;53.096;6.062;2023-04-03T03:24:55;4.95;;;1.50;;
52898;SDS011;38763;53.096;6.062;2023-04-03T03:27:20;4.53;;;1.33;;
52898;SDS011;38763;53.096;6.062;2023-04-03T03:29:46;7.05;;;1.70;;
52898;SDS011;38763;53.096;6.062;2023-04-03T03:32:12;4.82;;;1.40;;
52898;SDS011;38763;53.096;6.062;2023-04-03T03:34:38;4.55;;;1.60;;
52898;SDS011;38763;53.096;6.062;2023-04-03T03:37:03;5.45;;;1.45;;
52898;SDS011;38763;53.096;6.062;2023-04-03T03:39:29;5.32;;;1.70;;
52898;SDS011;38763;53.096;6.062;2023-04-03T03:41:55;6.82;;;1.70;;
52898;SDS011;38763;53.096;6.062;2023-04-03T03:44:21;4.30;;;1.50;;
52898;SDS011;38763;53.096;6.062;2023-04-03T03:46:46;6.15;;;2.03;;
52898;SDS011;38763;53.096;6.062;2023-04-03T03:49:12;6.13;;;1.50;;
52898;SDS011;38763;53.096;6.062;2023-04-03T03:51:38;4.70;;;1.38;;
52898;SDS011;38763;53.096;6.062;2023-04-03T03:54:04;3.78;;;1.40;;
52898;SDS011;38763;53.096;6.062;2023-04-03T03:56:30;7.30;;;1.70;;
52898;SDS011;38763;53.096;6.062;2023-04-03T03:58:57;6.00;;;1.80;;
52898;SDS011;38763;53.096;6.062;2023-04-03T04:01:23;5.75;;;1.70;;
52898;SDS011;38763;53.096;6.062;2023-04-03T04:03:49;6.28;;;1.60;;
52898;SDS011;38763;53.096;6.062;2023-04-03T04:06:15;7.63;;;1.70;;
52898;SDS011;38763;53.096;6.062;2023-04-03T04:08:41;5.85;;;1.70;;
52898;SDS011;38763;53.096;6.062;2023-04-03T04:11:07;6.10;;;1.75;;
52898;SDS011;38763;53.096;6.062;2023-04-03T04:13:33;6.82;;;1.55;;
52898;SDS011;38763;53.096;6.062;2023-04-03T04:15:59;5.28;;;1.70;;
52898;SDS011;38763;53.096;6.062;2023-04-03T04:18:24;4.68;;;1.50;;
52898;SDS011;38763;53.096;6.062;2023-04-03T04:20:50;4.43;;;1.60;;
52898;SDS011;38763;53.096;6.062;2023-04-03T04:23:17;5.57;;;1.73;;
52898;SDS011;38763;53.096;6.062;2023-04-03T04:25:46;8.25;;;2.30;;
52898;SDS011;38763;53.096;6.062;2023-04-03T04:28:14;5.50;;;1.63;;
52898;SDS011;38763;53.096;6.062;2023-04-03T04:30:40;6.47;;;2.08;;
52898;SDS011;38763;53.096;6.062;2023-04-03T04:33:06;5.72;;;1.85;;
52898;SDS011;38763;53.096;6.062;2023-04-03T04:35:32;6.25;;;1.85;;
52898;SDS011;38763;53.096;6.062;2023-04-03T04:37:58;5.88;;;1.75;;
52898;SDS011;38763;53.096;6.062;2023-04-03T04:40:24;9.73;;;2.00;;
52898;SDS011;38763;53.096;6.062;2023-04-03T04:42:50;6.75;;;1.90;;
52898;SDS011;38763;53.096;6.062;2023-04-03T04:45:16;7.70;;;2.10;;
52898;SDS011;38763;53.096;6.062;2023-04-03T04:47:42;6.80;;;1.75;;
52898;SDS011;38763;53.096;6.062;2023-04-03T04:50:08;6.60;;;2.00;;
52898;SDS011;38763;53.096;6.062;2023-04-03T04:52:34;5.28;;;2.05;;
52898;SDS011;38763;53.096;6.062;2023-04-03T04:54:59;7.28;;;1.92;;
52898;SDS011;38763;53.096;6.062;2023-04-03T04:57:25;8.13;;;2.17;;
52898;SDS011;38763;53.096;6.062;2023-04-03T04:59:51;7.30;;;2.10;;
52898;SDS011;38763;53.096;6.062;2023-04-03T05:02:17;8.30;;;2.45;;
52898;SDS011;38763;53.096;6.062;2023-04-03T05:04:43;6.90;;;2.40;;
52898;SDS011;38763;53.096;6.062;2023-04-03T05:07:08;7.32;;;2.40;;
52898;SDS011;38763;53.096;6.062;2023-04-03T05:09:34;9.52;;;2.22;;
52898;SDS011;38763;53.096;6.062;2023-04-03T05:12:00;5.72;;;2.20;;
52898;SDS011;38763;53.096;6.062;2023-04-03T05:14:26;5.63;;;2.13;;
52898;SDS011;38763;53.096;6.062;2023-04-03T05:16:52;8.00;;;2.28;;
52898;SDS011;38763;53.096;6.062;2023-04-03T05:19:19;9.25;;;2.38;;
52898;SDS011;38763;53.096;6.062;2023-04-03T05:21:45;7.55;;;2.83;;
52898;SDS011;38763;53.096;6.062;2023-04-03T05:24:11;10.15;;;2.65;;
52898;SDS011;38763;53.096;6.062;2023-04-03T05:26:36;9.50;;;2.30;;
52898;SDS011;38763;53.096;6.062;2023-04-03T05:29:02;7.85;;;1.98;;
52898;SDS011;38763;53.096;6.062;2023-04-03T05:31:28;7.97;;;2.78;;
52898;SDS011;38763;53.096;6.062;2023-04-03T05:33:55;9.60;;;2.60;;
52898;SDS011;38763;53.096;6.062;2023-04-03T05:36:21;8.23;;;2.25;;
52898;SDS011;38763;53.096;6.062;2023-04-03T05:38:47;8.95;;;2.67;;
52898;SDS011;38763;53.096;6.062;2023-04-03T05:41:13;9.40;;;2.90;;
52898;SDS011;38763;53.096;6.062;2023-04-03T05:43:39;7.22;;;2.50;;
52898;SDS011;38763;53.096;6.062;2023-04-03T05:46:10;9.05;;;2.83;;
52898;SDS011;38763;53.096;6.062;2023-04-03T05:48:37;7.80;;;2.53;;
52898;SDS011;38763;53.096;6.062;2023-04-03T05:51:03;6.00;;;2.28;;
52898;SDS011;38763;53.096;6.062;2023-04-03T05:53:29;8.10;;;2.10;;
52898;SDS011;38763;53.096;6.062;2023-04-03T05:55:57;7.13;;;2.33;;
52898;SDS011;38763;53.096;6.062;2023-04-03T05:58:23;6.18;;;2.00;;
52898;SDS011;38763;53.096;6.062;2023-04-03T06:00:49;7.57;;;2.28;;
52898;SDS011;38763;53.096;6.062;2023-04-03T06:03:14;8.98;;;2.60;;
52898;SDS011;38763;53.096;6.062;2023-04-03T06:05:40;7.03;;;2.35;;
52898;SDS011;38763;53.096;6.062;2023-04-03T06:08:06;6.82;;;2.55;;
52898;SDS011;38763;53.096;6.062;2023-04-03T06:10:34;9.00;;;2.58;;
52898;SDS011;38763;53.096;6.062;2023-04-03T06:13:00;6.93;;;2.72;;
52898;SDS011;38763;53.096;6.062;2023-04-03T06:15:26;6.80;;;2.33;;
52898;SDS011;38763;53.096;6.062;2023-04-03T06:17:52;6.38;;;2.30;;
52898;SDS011;38763;53.096;6.062;2023-04-03T06:20:17;8.68;;;2.40;;
52898;SDS011;38763;53.096;6.062;2023-04-03T06:22:43;5.88;;;2.25;;
52898;SDS011;38763;53.096;6.062;2023-04-03T06:25:09;5.22;;;2.25;;
52898;SDS011;38763;53.096;6.062;2023-04-03T06:27:35;6.60;;;2.38;;
52898;SDS011;38763;53.096;6.062;2023-04-03T06:30:00;6.93;;;2.28;;
52898;SDS011;38763;53.096;6.062;2023-04-03T06:32:26;9.73;;;2.50;;
52898;SDS011;38763;53.096;6.062;2023-04-03T06:34:52;10.27;;;2.28;;
52898;SDS011;38763;53.096;6.062;2023-04-03T06:37:19;6.47;;;2.33;;
52898;SDS011;38763;53.096;6.062;2023-04-03T06:39:47;7.80;;;2.53;;
52898;SDS011;38763;53.096;6.062;2023-04-03T06:42:12;8.23;;;2.35;;
52898;SDS011;38763;53.096;6.062;2023-04-03T06:44:38;8.07;;;2.50;;
52898;SDS011;38763;53.096;6.062;2023-04-03T06:47:04;6.95;;;2.40;;
52898;SDS011;38763;53.096;6.062;2023-04-03T06:49:30;9.38;;;2.55;;
52898;SDS011;38763;53.096;6.062;2023-04-03T06:51:56;7.72;;;2.42;;
52898;SDS011;38763;53.096;6.062;2023-04-03T06:54:22;8.65;;;2.58;;
52898;SDS011;38763;53.096;6.062;2023-04-03T06:56:48;8.27;;;2.40;;
52898;SDS011;38763;53.096;6.062;2023-04-03T06:59:14;8.18;;;2.78;;
52898;SDS011;38763;53.096;6.062;2023-04-03T07:01:40;8.52;;;2.70;;
52898;SDS011;38763;53.096;6.062;2023-04-03T07:04:06;6.35;;;2.25;;
52898;SDS011;38763;53.096;6.062;2023-04-03T07:06:32;12.15;;;2.47;;
52898;SDS011;38763;53.096;6.062;2023-04-03T07:08:58;10.57;;;2.50;;
52898;SDS011;38763;53.096;6.062;2023-04-03T07:11:25;7.20;;;2.35;;
52898;SDS011;38763;53.096;6.062;2023-04-03T07:13:51;5.85;;;2.33;;
52898;SDS011;38763;53.096;6.062;2023-04-03T07:16:17;7.15;;;2.38;;
52898;SDS011;38763;53.096;6.062;2023-04-03T07:18:43;6.95;;;2.50;;
52898;SDS011;38763;53.096;6.062;2023-04-03T07:21:09;8.18;;;2.35;;
52898;SDS011;38763;53.096;6.062;2023-04-03T07:23:34;9.98;;;2.53;;
52898;SDS011;38763;53.096;6.062;2023-04-03T07:26:00;8.27;;;2.00;;
52898;SDS011;38763;53.096;6.062;2023-04-03T07:28:26;8.45;;;2.20;;
52898;SDS011;38763;53.096;6.062;2023-04-03T07:30:53;7.78;;;2.17;;
52898;SDS011;38763;53.096;6.062;2023-04-03T07:33:24;6.82;;;1.55;;
52898;SDS011;38763;53.096;6.062;2023-04-03T07:35:51;5.78;;;1.90;;
52898;SDS011;38763;53.096;6.062;2023-04-03T07:38:16;6.03;;;2.00;;
52898;SDS011;38763;53.096;6.062;2023-04-03T07:40:49;4.78;;;1.75;;
52898;SDS011;38763;53.096;6.062;2023-04-03T07:43:18;4.50;;;1.70;;
52898;SDS011;38763;53.096;6.062;2023-04-03T07:45:45;8.35;;;2.58;;
52898;SDS011;38763;53.096;6.062;2023-04-03T07:48:14;6.97;;;2.10;;
52898;SDS011;38763;53.096;6.062;2023-04-03T07:50:41;6.85;;;1.92;;
52898;SDS011;38763;53.096;6.062;2023-04-03T07:53:07;4.40;;;1.70;;
52898;SDS011;38763;53.096;6.062;2023-04-03T07:55:33;5.65;;;2.00;;
52898;SDS011;38763;53.096;6.062;2023-04-03T07:58:02;7.18;;;2.00;;
52898;SDS011;38763;53.096;6.062;2023-04-03T08:00:28;5.10;;;1.98;;
52898;SDS011;38763;53.096;6.062;2023-04-03T08:02:54;6.80;;;1.65;;
52898;SDS011;38763;53.096;6.062;2023-04-03T08:05:20;5.65;;;1.63;;
52898;SDS011;38763;53.096;6.062;2023-04-03T08:07:47;5.00;;;1.35;;
52898;SDS011;38763;53.096;6.062;2023-04-03T08:10:13;6.18;;;1.70;;
52898;SDS011;38763;53.096;6.062;2023-04-03T08:12:39;8.20;;;2.00;;
52898;SDS011;38763;53.096;6.062;2023-04-03T08:15:06;6.93;;;1.73;;
52898;SDS011;38763;53.096;6.062;2023-04-03T08:17:33;5.07;;;1.40;;
52898;SDS011;38763;53.096;6.062;2023-04-03T08:19:59;5.43;;;1.58;;
52898;SDS011;38763;53.096;6.062;2023-04-03T08:22:26;4.07;;;1.60;;
52898;SDS011;38763;53.096;6.062;2023-04-03T08:24:51;4.70;;;1.50;;
52898;SDS011;38763;53.096;6.062;2023-04-03T08:27:17;5.15;;;1.10;;
52898;SDS011;38763;53.096;6.062;2023-04-03T08:29:42;4.25;;;1.17;;
52898;SDS011;38763;53.096;6.062;2023-04-03T08:32:08;5.00;;;1.30;;
52898;SDS011;38763;53.096;6.062;2023-04-03T08:34:34;2.88;;;1.15;;
52898;SDS011;38763;53.096;6.062;2023-04-03T08:37:01;4.93;;;1.38;;
52898;SDS011;38763;53.096;6.062;2023-04-03T08:39:27;5.97;;;1.52;;
52898;SDS011;38763;53.096;6.062;2023-04-03T08:41:55;4.25;;;1.52;;
52898;SDS011;38763;53.096;6.062;2023-04-03T08:47:12;4.93;;;1.60;;
52898;SDS011;38763;53.096;6.062;2023-04-03T08:49:55;4.43;;;1.50;;
52898;SDS011;38763;53.096;6.062;2023-04-03T08:55:13;3.15;;;1.05;;
52898;SDS011;38763;53.096;6.062;2023-04-03T08:57:46;3.42;;;1.30;;
52898;SDS011;38763;53.096;6.062;2023-04-03T09:02:51;4.30;;;1.30;;
52898;SDS011;38763;53.096;6.062;2023-04-03T09:10:29;4.35;;;1.13;;
52898;SDS011;38763;53.096;6.062;2023-04-03T09:13:07;4.20;;;1.00;;
52898;SDS011;38763;53.096;6.062;2023-04-03T09:15:52;2.47;;;1.02;;
52898;SDS011;38763;53.096;6.062;2023-04-03T09:18:21;1.73;;;0.88;;
52898;SDS011;38763;53.096;6.062;2023-04-03T09:21:04;3.75;;;0.90;;
52898;SDS011;38763;53.096;6.062;2023-04-03T09:26:14;4.15;;;1.10;;
52898;SDS011;38763;53.096;6.062;2023-04-03T09:28:48;4.32;;;0.98;;
52898;SDS011;38763;53.096;6.062;2023-04-03T09:31:19;1.83;;;0.95;;
52898;SDS011;38763;53.096;6.062;2023-04-03T09:33:49;4.90;;;1.20;;
52898;SDS011;38763;53.096;6.062;2023-04-03T09:39:07;3.15;;;1.10;;
52898;SDS011;38763;53.096;6.062;2023-04-03T09:41:37;2.10;;;0.90;;
52898;SDS011;38763;53.096;6.062;2023-04-03T09:44:03;2.15;;;0.95;;
52898;SDS011;38763;53.096;6.062;2023-04-03T09:46:42;5.38;;;1.20;;
52898;SDS011;38763;53.096;6.062;2023-04-03T09:49:08;5.00;;;1.30;;
52898;SDS011;38763;53.096;6.062;2023-04-03T09:51:37;2.90;;;0.90;;
52898;SDS011;38763;53.096;6.062;2023-04-03T09:54:25;1.77;;;0.52;;
52898;SDS011;38763;53.096;6.062;2023-04-03T09:56:49;3.10;;;0.90;;
52898;SDS011;38763;53.096;6.062;2023-04-03T09:59:15;2.95;;;1.10;;
52898;SDS011;38763;53.096;6.062;2023-04-03T10:01:42;2.33;;;0.70;;
52898;SDS011;38763;53.096;6.062;2023-04-03T10:04:22;1.60;;;0.50;;
52898;SDS011;38763;53.096;6.062;2023-04-03T10:06:49;4.20;;;1.00;;
52898;SDS011;38763;53.096;6.062;2023-04-03T10:09:27;2.65;;;0.82;;
52898;SDS011;38763;53.096;6.062;2023-04-03T10:14:40;1.23;;;0.60;;
52898;SDS011;38763;53.096;6.062;2023-04-03T10:19:47;3.00;;;1.10;;
52898;SDS011;38763;53.096;6.062;2023-04-03T10:25:32;4.28;;;0.80;;
52898;SDS011;38763;53.096;6.062;2023-04-03T10:30:43;2.28;;;0.70;;
52898;SDS011;38763;53.096;6.062;2023-04-03T10:36:24;2.28;;;0.80;;
52898;SDS011;38763;53.096;6.062;2023-04-03T10:39:22;2.72;;;0.77;;
52898;SDS011;38763;53.096;6.062;2023-04-03T10:47:08;2.50;;;1.08;;
52898;SDS011;38763;53.096;6.062;2023-04-03T10:49:50;3.17;;;0.80;;
52898;SDS011;38763;53.096;6.062;2023-04-03T10:52:31;2.97;;;0.90;;
52898;SDS011;38763;53.096;6.062;2023-04-03T10:55:24;1.48;;;0.70;;
52898;SDS011;38763;53.096;6.062;2023-04-03T10:57:56;3.10;;;0.57;;
52898;SDS011;38763;53.096;6.062;2023-04-03T11:00:39;2.05;;;0.60;;
52898;SDS011;38763;53.096;6.062;2023-04-03T11:06:15;1.83;;;0.63;;
52898;SDS011;38763;53.096;6.062;2023-04-03T11:11:26;3.67;;;0.68;;
52898;SDS011;38763;53.096;6.062;2023-04-03T11:16:28;2.97;;;0.70;;
52898;SDS011;38763;53.096;6.062;2023-04-03T11:19:04;1.92;;;0.73;;
52898;SDS011;38763;53.096;6.062;2023-04-03T11:21:42;2.15;;;0.60;;
52898;SDS011;38763;53.096;6.062;2023-04-03T11:24:31;1.42;;;0.60;;
52898;SDS011;38763;53.096;6.062;2023-04-03T11:26:59;2.10;;;0.70;;
52898;SDS011;38763;53.096;6.062;2023-04-03T11:29:34;3.17;;;0.73;;
52898;SDS011;38763;53.096;6.062;2023-04-03T11:35:06;1.92;;;0.85;;
52898;SDS011;38763;53.096;6.062;2023-04-03T11:37:40;2.13;;;0.57;;
52898;SDS011;38763;53.096;6.062;2023-04-03T11:42:55;2.85;;;0.80;;
52898;SDS011;38763;53.096;6.062;2023-04-03T11:50:57;1.55;;;0.68;;
52898;SDS011;38763;53.096;6.062;2023-04-03T11:53:25;1.95;;;0.88;;
52898;SDS011;38763;53.096;6.062;2023-04-03T12:04:26;2.38;;;0.90;;
52898;SDS011;38763;53.096;6.062;2023-04-03T12:06:54;2.90;;;0.70;;
52898;SDS011;38763;53.096;6.062;2023-04-03T12:12:00;3.20;;;0.70;;
52898;SDS011;38763;53.096;6.062;2023-04-03T12:14:45;2.65;;;0.75;;
52898;SDS011;38763;53.096;6.062;2023-04-03T12:17:18;2.20;;;0.80;;
52898;SDS011;38763;53.096;6.062;2023-04-03T12:19:48;1.88;;;0.77;;
52898;SDS011;38763;53.096;6.062;2023-04-03T12:22:18;2.78;;;0.80;;
52898;SDS011;38763;53.096;6.062;2023-04-03T12:24:47;3.22;;;0.73;;
52898;SDS011;38763;53.096;6.062;2023-04-03T12:32:31;2.80;;;0.90;;
52898;SDS011;38763;53.096;6.062;2023-04-03T12:35:21;2.58;;;0.82;;
52898;SDS011;38763;53.096;6.062;2023-04-03T12:48:33;1.33;;;0.70;;
52898;SDS011;38763;53.096;6.062;2023-04-03T12:56:49;2.92;;;0.73;;
52898;SDS011;38763;53.096;6.062;2023-04-03T12:59:19;4.13;;;1.00;;
52898;SDS011;38763;53.096;6.062;2023-04-03T13:02:01;2.67;;;0.80;;
52898;SDS011;38763;53.096;6.062;2023-04-03T13:04:28;4.28;;;0.82;;
52898;SDS011;38763;53.096;6.062;2023-04-03T13:06:56;4.53;;;0.90;;
52898;SDS011;38763;53.096;6.062;2023-04-03T13:09:29;4.00;;;1.00;;
52898;SDS011;38763;53.096;6.062;2023-04-03T13:14:25;2.90;;;1.17;;
52898;SDS011;38763;53.096;6.062;2023-04-03T13:19:20;5.15;;;1.20;;
52898;SDS011;38763;53.096;6.062;2023-04-03T13:21:47;2.35;;;0.82;;
52898;SDS011;38763;53.096;6.062;2023-04-03T13:24:14;2.22;;;0.77;;
52898;SDS011;38763;53.096;6.062;2023-04-03T13:26:40;2.00;;;0.90;;
52898;SDS011;38763;53.096;6.062;2023-04-03T13:29:14;1.42;;;0.70;;
52898;SDS011;38763;53.096;6.062;2023-04-03T13:31:48;3.47;;;0.93;;
52898;SDS011;38763;53.096;6.062;2023-04-03T13:34:21;3.28;;;0.98;;
52898;SDS011;38763;53.096;6.062;2023-04-03T13:41:45;3.08;;;0.98;;
52898;SDS011;38763;53.096;6.062;2023-04-03T13:47:14;3.95;;;1.05;;
52898;SDS011;38763;53.096;6.062;2023-04-03T13:52:00;3.20;;;0.98;;
52898;SDS011;38763;53.096;6.062;2023-04-03T13:54:49;5.65;;;1.00;;
52898;SDS011;38763;53.096;6.062;2023-04-03T13:57:21;4.93;;;1.13;;
52898;SDS011;38763;53.096;6.062;2023-04-03T13:59:47;3.33;;;1.13;;
52898;SDS011;38763;53.096;6.062;2023-04-03T14:02:16;5.38;;;0.98;;
52898;SDS011;38763;53.096;6.062;2023-04-03T14:07:25;3.42;;;0.90;;
52898;SDS011;38763;53.096;6.062;2023-04-03T14:09:51;2.58;;;0.88;;
52898;SDS011;38763;53.096;6.062;2023-04-03T14:12:19;2.75;;;1.13;;
52898;SDS011;38763;53.096;6.062;2023-04-03T14:14:52;3.55;;;1.10;;
52898;SDS011;38763;53.096;6.062;2023-04-03T14:17:19;2.55;;;1.00;;
52898;SDS011;38763;53.096;6.062;2023-04-03T14:19:47;6.18;;;1.70;;
52898;SDS011;38763;53.096;6.062;2023-04-03T14:22:16;2.25;;;0.95;;
52898;SDS011;38763;53.096;6.062;2023-04-03T14:24:47;2.57;;;0.97;;
52898;SDS011;38763;53.096;6.062;2023-04-03T14:27:23;4.20;;;1.20;;
52898;SDS011;38763;53.096;6.062;2023-04-03T14:29:52;2.75;;;0.90;;
52898;SDS011;38763;53.096;6.062;2023-04-03T14:32:19;2.92;;;1.20;;
52898;SDS011;38763;53.096;6.062;2023-04-03T14:34:46;3.40;;;1.15;;
52898;SDS011;38763;53.096;6.062;2023-04-03T14:37:14;4.05;;;1.20;;
52898;SDS011;38763;53.096;6.062;2023-04-03T14:39:45;4.38;;;1.20;;
52898;SDS011;38763;53.096;6.062;2023-04-03T14:42:16;2.78;;;1.00;;
52898;SDS011;38763;53.096;6.062;2023-04-03T14:44:43;2.83;;;0.90;;
52898;SDS011;38763;53.096;6.062;2023-04-03T14:47:10;3.60;;;1.10;;
52898;SDS011;38763;53.096;6.062;2023-04-03T14:49:37;3.50;;;1.10;;
52898;SDS011;38763;53.096;6.062;2023-04-03T14:52:03;2.70;;;1.00;;
52898;SDS011;38763;53.096;6.062;2023-04-03T14:54:29;3.35;;;1.00;;
52898;SDS011;38763;53.096;6.062;2023-04-03T14:56:56;3.85;;;1.05;;
52898;SDS011;38763;53.096;6.062;2023-04-03T14:59:30;4.47;;;1.17;;
52898;SDS011;38763;53.096;6.062;2023-04-03T15:01:57;3.30;;;1.10;;
52898;SDS011;38763;53.096;6.062;2023-04-03T15:04:23;3.38;;;0.90;;
52898;SDS011;38763;53.096;6.062;2023-04-03T15:06:50;3.67;;;1.10;;
52898;SDS011;38763;53.096;6.062;2023-04-03T15:09:24;4.28;;;1.15;;
52898;SDS011;38763;53.096;6.062;2023-04-03T15:11:51;2.92;;;0.90;;
52898;SDS011;38763;53.096;6.062;2023-04-03T15:14:18;4.47;;;1.38;;
52898;SDS011;38763;53.096;6.062;2023-04-03T15:16:44;2.65;;;1.00;;
52898;SDS011;38763;53.096;6.062;2023-04-03T15:19:10;3.10;;;1.23;;
52898;SDS011;38763;53.096;6.062;2023-04-03T15:21:36;5.65;;;1.30;;
52898;SDS011;38763;53.096;6.062;2023-04-03T15:24:02;5.75;;;1.50;;
52898;SDS011;38763;53.096;6.062;2023-04-03T15:26:28;3.17;;;1.13;;
52898;SDS011;38763;53.096;6.062;2023-04-03T15:28:54;4.80;;;1.42;;
52898;SDS011;38763;53.096;6.062;2023-04-03T15:31:19;3.10;;;1.20;;
52898;SDS011;38763;53.096;6.062;2023-04-03T15:33:45;5.10;;;1.40;;
52898;SDS011;38763;53.096;6.062;2023-04-03T15:36:11;3.50;;;1.17;;
52898;SDS011;38763;53.096;6.062;2023-04-03T15:38:37;5.88;;;1.38;;
52898;SDS011;38763;53.096;6.062;2023-04-03T15:41:03;3.42;;;1.20;;
52898;SDS011;38763;53.096;6.062;2023-04-03T15:43:30;4.72;;;1.80;;
52898;SDS011;38763;53.096;6.062;2023-04-03T15:45:56;3.83;;;1.30;;
52898;SDS011;38763;53.096;6.062;2023-04-03T15:48:23;7.10;;;1.50;;
52898;SDS011;38763;53.096;6.062;2023-04-03T15:50:48;6.07;;;1.50;;
52898;SDS011;38763;53.096;6.062;2023-04-03T15:53:14;3.72;;;1.25;;
52898;SDS011;38763;53.096;6.062;2023-04-03T15:55:40;3.88;;;1.10;;
52898;SDS011;38763;53.096;6.062;2023-04-03T15:58:06;3.78;;;1.15;;
52898;SDS011;38763;53.096;6.062;2023-04-03T16:00:32;3.30;;;1.10;;
52898;SDS011;38763;53.096;6.062;2023-04-03T16:03:00;3.92;;;1.15;;
52898;SDS011;38763;53.096;6.062;2023-04-03T16:05:31;4.22;;;1.05;;
52898;SDS011;38763;53.096;6.062;2023-04-03T16:07:57;3.22;;;1.17;;
52898;SDS011;38763;53.096;6.062;2023-04-03T16:10:25;4.32;;;1.10;;
52898;SDS011;38763;53.096;6.062;2023-04-03T16:12:51;4.68;;;1.20;;
52898;SDS011;38763;53.096;6.062;2023-04-03T16:15:16;3.72;;;1.10;;
52898;SDS011;38763;53.096;6.062;2023-04-03T16:17:43;5.20;;;1.35;;
52898;SDS011;38763;53.096;6.062;2023-04-03T16:20:10;2.55;;;0.90;;
52898;SDS011;38763;53.096;6.062;2023-04-03T16:22:36;3.13;;;1.13;;
52898;SDS011;38763;53.096;6.062;2023-04-03T16:25:03;6.70;;;1.90;;
52898;SDS011;38763;53.096;6.062;2023-04-03T16:27:29;3.13;;;0.90;;
52898;SDS011;38763;53.096;6.062;2023-04-03T16:29:58;2.38;;;0.75;;
52898;SDS011;38763;53.096;6.062;2023-04-03T16:32:25;3.20;;;0.90;;
52898;SDS011;38763;53.096;6.062;2023-04-03T16:34:53;2.88;;;0.90;;
52898;SDS011;38763;53.096;6.062;2023-04-03T16:37:19;4.15;;;0.93;;
52898;SDS011;38763;53.096;6.062;2023-04-03T16:39:45;2.33;;;0.80;;
52898;SDS011;38763;53.096;6.062;2023-04-03T16:42:11;6.32;;;0.90;;
52898;SDS011;38763;53.096;6.062;2023-04-03T16:44:37;3.03;;;0.90;;
52898;SDS011;38763;53.096;6.062;2023-04-03T16:47:04;4.70;;;1.00;;
52898;SDS011;38763;53.096;6.062;2023-04-03T16:49:30;4.45;;;1.10;;
52898;SDS011;38763;53.096;6.062;2023-04-03T16:51:59;4.47;;;1.08;;
52898;SDS011;38763;53.096;6.062;2023-04-03T16:54:26;6.82;;;1.63;;
52898;SDS011;38763;53.096;6.062;2023-04-03T16:56:52;3.20;;;1.00;;